createdAt,value
2022-08-17T00:00:03.302Z,4.1
2022-08-17T00:00:43.430Z,4.1
2022-08-17T00:00:49.430Z,4.1
2022-08-17T00:01:03.579Z,4.1
2022-08-17T00:01:24.120Z,4.1
2022-08-17T00:01:52.299Z,4.1
2022-08-17T00:02:21.173Z,4.6
2022-08-17T00:02:26.353Z,4.6
2022-08-17T00:02:43.755Z,4.6
2022-08-17T00:03:03.837Z,4.6
2022-08-17T00:03:23.867Z,4.6
2022-08-17T00:03:43.956Z,4.6
2022-08-17T00:04:06.925Z,4.6
2022-08-17T00:04:24.115Z,4.6
2022-08-17T00:04:49.897Z,4.6
2022-08-17T00:05:04.229Z,4.6
2022-08-17T00:05:24.310Z,4.6
2022-08-17T00:05:44.359Z,4.6
2022-08-17T00:06:04.423Z,4.6
2022-08-17T00:06:24.514Z,4.6
2022-08-17T00:06:44.565Z,4.6
2022-08-17T00:07:04.635Z,4.6
2022-08-17T00:07:24.713Z,4.6
2022-08-17T00:07:44.734Z,4.6
2022-08-17T00:08:04.808Z,4.6
2022-08-17T00:08:24.881Z,4.6
2022-08-17T00:08:44.967Z,4.6
2022-08-17T00:09:05.052Z,4.6
2022-08-17T00:09:25.108Z,4.6
2022-08-17T00:09:45.178Z,4.6
2022-08-17T00:10:05.247Z,4.6
2022-08-17T00:10:25.292Z,4.6
2022-08-17T00:10:45.336Z,4.6
2022-08-17T00:11:05.408Z,4.6
2022-08-17T00:11:25.454Z,4.6
2022-08-17T00:12:35.467Z,4.6
2022-08-17T00:12:40.833Z,4.2
2022-08-17T00:12:43.645Z,4.2
2022-08-17T00:12:45.775Z,4.2
2022-08-17T00:13:05.797Z,4.2
2022-08-17T00:13:25.840Z,4.2
2022-08-17T00:13:45.885Z,4.2
2022-08-17T00:14:05.939Z,4.2
2022-08-17T00:14:25.973Z,4.2
2022-08-17T00:14:46.043Z,4.2
2022-08-17T00:15:06.115Z,4.2
2022-08-17T00:15:26.163Z,4.2
2022-08-17T00:15:46.225Z,4.2
2022-08-17T00:16:06.262Z,4.2
2022-08-17T00:16:55.846Z,4.2
2022-08-17T00:16:57.093Z,4.2
2022-08-17T00:17:06.440Z,4.2
2022-08-17T00:17:26.473Z,4.2
2022-08-17T00:17:46.538Z,4.2
2022-08-17T00:19:00.958Z,4.2
2022-08-17T00:19:01.551Z,4.2
2022-08-17T00:19:06.370Z,4.2
2022-08-17T00:19:08.647Z,4.2
2022-08-17T00:19:26.837Z,4.2
2022-08-17T00:19:46.876Z,4.2
2022-08-17T00:20:06.963Z,4.2
2022-08-17T00:20:30.606Z,4.2
2022-08-17T00:20:47.059Z,4.2
2022-08-17T00:21:10.710Z,4.2
2022-08-17T00:21:27.197Z,4.2
2022-08-17T00:22:29.540Z,4.2
2022-08-17T00:22:32.178Z,4.6
2022-08-17T00:22:32.178Z,4.6
2022-08-17T00:22:47.614Z,4.6
2022-08-17T00:23:07.571Z,4.6
2022-08-17T00:23:27.601Z,4.6
2022-08-17T00:23:49.312Z,4.6
2022-08-17T00:24:07.722Z,4.6
2022-08-17T00:24:27.755Z,4.6
2022-08-17T00:24:47.791Z,4.6
2022-08-17T00:25:07.845Z,4.6
2022-08-17T00:25:27.925Z,4.6
2022-08-17T00:25:47.980Z,4.6
2022-08-17T00:26:08.051Z,4.6
2022-08-17T00:26:44.617Z,4.6
2022-08-17T00:26:48.166Z,4.6
2022-08-17T00:27:08.236Z,4.6
2022-08-17T00:27:28.312Z,4.6
2022-08-17T00:27:48.371Z,4.6
2022-08-17T00:28:08.425Z,4.6
2022-08-17T00:28:28.498Z,4.6
2022-08-17T00:28:48.579Z,4.6
2022-08-17T00:29:08.639Z,4.6
2022-08-17T00:29:28.676Z,4.6
2022-08-17T00:29:48.729Z,4.6
2022-08-17T00:30:08.777Z,4.6
2022-08-17T00:30:28.840Z,4.6
2022-08-17T00:30:52.958Z,4.6
2022-08-17T00:31:08.973Z,4.6
2022-08-17T00:31:29.015Z,4.6
2022-08-17T00:31:49.088Z,4.6
2022-08-17T00:33:12.397Z,4.7
2022-08-17T00:33:14.778Z,4.6
2022-08-17T00:33:15.123Z,4.7
2022-08-17T00:33:23.038Z,4.7
2022-08-17T00:33:29.808Z,4.7
2022-08-17T00:33:49.407Z,4.7
2022-08-17T00:34:09.459Z,4.7
2022-08-17T00:34:29.492Z,4.7
2022-08-17T00:34:49.579Z,4.7
2022-08-17T00:35:09.667Z,4.7
2022-08-17T00:35:29.740Z,4.7
2022-08-17T00:35:49.794Z,4.7
2022-08-17T00:36:09.892Z,4.7
2022-08-17T00:36:29.964Z,4.7
2022-08-17T00:36:49.996Z,4.7
2022-08-17T00:37:10.048Z,4.7
2022-08-17T00:37:30.090Z,4.7
2022-08-17T00:37:50.154Z,4.7
2022-08-17T00:38:10.212Z,4.7
2022-08-17T00:38:30.273Z,4.7
2022-08-17T00:38:50.323Z,4.7
2022-08-17T00:39:10.376Z,4.7
2022-08-17T00:39:30.531Z,4.7
2022-08-17T00:39:50.647Z,4.7
2022-08-17T00:40:10.698Z,4.7
2022-08-17T00:40:40.804Z,4.7
2022-08-17T00:40:50.726Z,4.7
2022-08-17T00:41:10.748Z,4.7
2022-08-17T00:41:30.976Z,4.7
2022-08-17T00:41:50.874Z,4.7
2022-08-17T00:42:10.915Z,4.7
2022-08-17T00:42:31.424Z,4.7
2022-08-17T00:42:51.269Z,4.7
2022-08-17T00:43:11.148Z,4.7
2022-08-17T00:43:31.214Z,4.7
2022-08-17T00:43:51.297Z,4.7
2022-08-17T00:44:11.363Z,4.7
2022-08-17T00:44:31.387Z,4.7
2022-08-17T00:44:51.458Z,4.7
2022-08-17T00:45:11.513Z,4.7
2022-08-17T00:45:31.572Z,4.7
2022-08-17T00:45:51.645Z,4.7
2022-08-17T00:46:11.697Z,4.7
2022-08-17T00:46:31.751Z,4.7
2022-08-17T00:46:51.817Z,4.7
2022-08-17T00:47:11.854Z,4.7
2022-08-17T00:47:31.924Z,4.7
2022-08-17T00:47:51.942Z,4.7
2022-08-17T00:48:29.089Z,4.7
2022-08-17T00:48:32.038Z,4.7
2022-08-17T00:48:52.111Z,4.7
2022-08-17T00:49:12.174Z,4.7
2022-08-17T00:49:32.226Z,4.7
2022-08-17T00:49:52.289Z,4.7
2022-08-17T00:50:12.363Z,4.7
2022-08-17T00:50:32.431Z,4.7
2022-08-17T00:50:52.494Z,4.7
2022-08-17T00:51:12.573Z,4.7
2022-08-17T00:51:32.621Z,4.7
2022-08-17T00:51:52.736Z,4.7
2022-08-17T00:52:12.788Z,4.7
2022-08-17T00:52:32.829Z,5.6
2022-08-17T00:52:52.894Z,5.6
2022-08-17T00:53:12.965Z,5.6
2022-08-17T00:53:33.023Z,5.6
2022-08-17T00:53:53.077Z,5.6
2022-08-17T00:54:13.139Z,5.6
2022-08-17T00:54:33.214Z,5.6
2022-08-17T00:54:53.262Z,5.6
2022-08-17T00:55:13.352Z,5.6
2022-08-17T00:55:33.434Z,5.6
2022-08-17T00:55:53.470Z,5.6
2022-08-17T00:56:13.548Z,5.6
2022-08-17T00:56:33.586Z,5.6
2022-08-17T00:56:53.663Z,5.6
2022-08-17T00:57:13.708Z,5.6
2022-08-17T00:57:33.764Z,5.6
2022-08-17T00:57:55.540Z,5.6
2022-08-17T00:58:13.897Z,5.6
2022-08-17T00:58:36.655Z,5.6
2022-08-17T00:58:54.008Z,5.6
2022-08-17T00:59:14.050Z,5.6
2022-08-17T00:59:34.119Z,5.6
2022-08-17T01:00:02.613Z,5.6
2022-08-17T01:00:14.217Z,5.6
2022-08-17T01:00:34.286Z,5.6
2022-08-17T01:00:54.424Z,5.6
2022-08-17T01:01:21.626Z,5.6
2022-08-17T01:01:34.509Z,5.6
2022-08-17T01:01:54.549Z,5.6
2022-08-17T01:02:14.599Z,5.6
2022-08-17T01:02:41.996Z,5.9
2022-08-17T01:02:54.949Z,5.9
2022-08-17T01:03:14.777Z,5.9
2022-08-17T01:03:34.801Z,5.9
2022-08-17T01:03:55.551Z,5.9
2022-08-17T01:04:14.884Z,5.9
2022-08-17T01:04:34.938Z,5.9
2022-08-17T01:04:55.035Z,5.9
2022-08-17T01:05:15.106Z,5.9
2022-08-17T01:05:35.131Z,5.9
2022-08-17T01:05:55.186Z,5.9
2022-08-17T01:06:15.265Z,5.9
2022-08-17T01:06:35.318Z,5.9
2022-08-17T01:06:55.381Z,5.9
2022-08-17T01:07:15.470Z,5.9
2022-08-17T01:07:35.521Z,5.9
2022-08-17T01:07:55.614Z,5.9
2022-08-17T01:08:15.675Z,5.9
2022-08-17T01:08:35.748Z,5.9
2022-08-17T01:08:57.487Z,5.9
2022-08-17T01:09:15.861Z,5.9
2022-08-17T01:09:35.912Z,5.9
2022-08-17T01:09:55.961Z,5.9
2022-08-17T01:10:59.139Z,5.9
2022-08-17T01:11:00.083Z,5.9
2022-08-17T01:11:00.477Z,5.9
2022-08-17T01:11:16.212Z,5.9
2022-08-17T01:11:36.250Z,5.9
2022-08-17T01:11:56.361Z,5.9
2022-08-17T01:12:16.394Z,5.9
2022-08-17T01:12:36.466Z,5.9
2022-08-17T01:12:56.556Z,3.5
2022-08-17T01:13:16.608Z,3.5
2022-08-17T01:13:40.650Z,3.5
2022-08-17T01:13:56.707Z,3.5
2022-08-17T01:14:16.761Z,3.5
2022-08-17T01:14:36.817Z,3.5
2022-08-17T01:14:56.872Z,3.5
2022-08-17T01:15:16.935Z,3.5
2022-08-17T01:15:36.993Z,3.5
2022-08-17T01:15:57.043Z,3.5
2022-08-17T01:16:17.179Z,3.5
2022-08-17T01:16:37.157Z,3.5
2022-08-17T01:16:57.234Z,3.5
2022-08-17T01:17:17.258Z,3.5
2022-08-17T01:17:37.312Z,3.5
2022-08-17T01:17:57.372Z,3.5
2022-08-17T01:18:17.445Z,3.5
2022-08-17T01:18:37.495Z,3.5
2022-08-17T01:18:57.567Z,3.5
2022-08-17T01:19:17.643Z,3.5
2022-08-17T01:19:37.695Z,3.5
2022-08-17T01:19:57.758Z,3.5
2022-08-17T01:20:17.821Z,3.5
2022-08-17T01:20:47.932Z,3.5
2022-08-17T01:20:57.981Z,3.5
2022-08-17T01:21:18.047Z,3.5
2022-08-17T01:21:38.086Z,3.5
2022-08-17T01:21:58.158Z,3.5
2022-08-17T01:22:18.213Z,3.5
2022-08-17T01:22:38.298Z,3.5
2022-08-17T01:22:58.333Z,3.8
2022-08-17T01:23:21.061Z,3.8
2022-08-17T01:23:38.475Z,3.8
2022-08-17T01:23:58.534Z,3.8
2022-08-17T01:24:18.606Z,3.8
2022-08-17T01:24:38.700Z,3.8
2022-08-17T01:24:58.770Z,3.8
2022-08-17T01:25:18.833Z,3.8
2022-08-17T01:25:38.932Z,3.8
2022-08-17T01:25:58.980Z,3.8
2022-08-17T01:26:19.019Z,3.8
2022-08-17T01:26:39.082Z,3.8
2022-08-17T01:26:59.138Z,3.8
2022-08-17T01:27:20.510Z,3.8
2022-08-17T01:27:39.261Z,3.8
2022-08-17T01:27:59.312Z,3.8
2022-08-17T01:28:52.618Z,3.8
2022-08-17T01:28:54.857Z,3.8
2022-08-17T01:28:59.482Z,3.8
2022-08-17T01:29:19.561Z,3.8
2022-08-17T01:29:39.666Z,3.8
2022-08-17T01:29:59.722Z,3.8
2022-08-17T01:30:56.763Z,3.8
2022-08-17T01:30:58.507Z,3.8
2022-08-17T01:30:59.901Z,3.8
2022-08-17T01:31:20.006Z,3.8
2022-08-17T01:31:40.035Z,3.8
2022-08-17T01:32:00.123Z,3.8
2022-08-17T01:32:20.163Z,3.8
2022-08-17T01:32:40.208Z,3.8
2022-08-17T01:33:00.273Z,3.8
2022-08-17T01:33:20.325Z,3.7
2022-08-17T01:33:40.393Z,3.7
2022-08-17T01:34:01.804Z,3.7
2022-08-17T01:34:20.511Z,3.7
2022-08-17T01:34:43.679Z,3.7
2022-08-17T01:35:00.610Z,3.7
2022-08-17T01:35:20.672Z,3.7
2022-08-17T01:35:40.706Z,3.7
2022-08-17T01:36:00.775Z,3.7
2022-08-17T01:36:20.832Z,3.7
2022-08-17T01:36:40.865Z,3.7
2022-08-17T01:37:00.952Z,3.7
2022-08-17T01:37:21.021Z,3.7
2022-08-17T01:37:41.082Z,3.7
2022-08-17T01:38:01.144Z,3.7
2022-08-17T01:38:27.080Z,3.7
2022-08-17T01:38:41.254Z,3.7
2022-08-17T01:39:01.358Z,3.7
2022-08-17T01:39:21.406Z,3.7
2022-08-17T01:39:41.519Z,3.7
2022-08-17T01:40:01.586Z,3.7
2022-08-17T01:40:21.586Z,3.7
2022-08-17T01:40:41.642Z,3.7
2022-08-17T01:41:01.701Z,3.7
2022-08-17T01:41:21.775Z,3.7
2022-08-17T01:41:41.838Z,3.7
2022-08-17T01:42:01.888Z,3.7
2022-08-17T01:42:21.947Z,3.7
2022-08-17T01:42:42.028Z,3.7
2022-08-17T01:43:02.073Z,3.25
2022-08-17T01:43:22.129Z,3.25
2022-08-17T01:43:42.182Z,3.25
2022-08-17T01:44:02.251Z,3.25
2022-08-17T01:44:22.292Z,3.25
2022-08-17T01:44:42.365Z,3.25
2022-08-17T01:45:02.434Z,3.25
2022-08-17T01:45:22.512Z,3.25
2022-08-17T01:45:42.576Z,3.25
2022-08-17T01:46:03.715Z,3.25
2022-08-17T01:46:22.716Z,3.25
2022-08-17T01:46:42.799Z,3.25
2022-08-17T01:47:02.879Z,3.25
2022-08-17T01:47:22.968Z,3.25
2022-08-17T01:47:43.024Z,3.25
2022-08-17T01:48:03.065Z,3.25
2022-08-17T01:48:23.145Z,3.25
2022-08-17T01:48:43.197Z,3.25
2022-08-17T01:49:03.281Z,3.25
2022-08-17T01:49:23.318Z,3.25
2022-08-17T01:49:43.400Z,3.25
2022-08-17T01:50:03.463Z,3.25
2022-08-17T01:50:23.510Z,3.25
2022-08-17T01:50:43.565Z,3.25
2022-08-17T01:51:03.635Z,3.25
2022-08-17T01:51:23.676Z,3.25
2022-08-17T01:51:43.715Z,3.25
2022-08-17T01:52:03.766Z,3.25
2022-08-17T01:52:23.849Z,3.25
2022-08-17T01:52:43.907Z,3.25
2022-08-17T01:53:03.951Z,3.25
2022-08-17T01:53:23.985Z,3.85
2022-08-17T01:53:44.028Z,3.85
2022-08-17T01:54:04.102Z,3.85
2022-08-17T01:54:24.158Z,3.85
2022-08-17T01:54:44.196Z,3.85
2022-08-17T01:55:04.233Z,3.85
2022-08-17T01:55:27.323Z,3.85
2022-08-17T01:55:44.330Z,3.85
2022-08-17T01:56:04.422Z,3.85
2022-08-17T01:56:24.495Z,3.85
2022-08-17T01:56:44.561Z,3.85
2022-08-17T01:57:04.655Z,3.85
2022-08-17T01:57:24.701Z,3.85
2022-08-17T01:57:44.726Z,3.85
2022-08-17T01:58:04.812Z,3.85
2022-08-17T01:58:24.852Z,3.85
2022-08-17T01:58:44.905Z,3.85
2022-08-17T01:59:04.971Z,3.85
2022-08-17T01:59:25.029Z,3.85
2022-08-17T01:59:45.104Z,3.85
2022-08-17T02:00:05.152Z,3.85
2022-08-17T02:00:25.221Z,3.85
2022-08-17T02:00:47.101Z,3.85
2022-08-17T02:01:05.406Z,3.85
2022-08-17T02:01:26.700Z,3.85
2022-08-17T02:01:45.592Z,3.85
2022-08-17T02:02:05.544Z,3.85
2022-08-17T02:02:30.282Z,3.85
2022-08-17T02:02:45.770Z,3.85
2022-08-17T02:03:05.725Z,3.85
2022-08-17T02:03:25.762Z,4.55
2022-08-17T02:03:56.170Z,4.55
2022-08-17T02:04:05.927Z,4.55
2022-08-17T02:04:25.985Z,4.55
2022-08-17T02:04:46.026Z,4.55
2022-08-17T02:05:06.065Z,4.55
2022-08-17T02:05:26.136Z,4.55
2022-08-17T02:05:46.211Z,4.55
2022-08-17T02:06:06.258Z,4.55
2022-08-17T02:06:28.009Z,4.55
2022-08-17T02:06:54.091Z,4.55
2022-08-17T02:07:06.470Z,4.55
2022-08-17T02:07:26.937Z,4.55
2022-08-17T02:07:59.630Z,4.55
2022-08-17T02:08:06.669Z,4.55
2022-08-17T02:08:37.060Z,4.55
2022-08-17T02:09:03.245Z,4.55
2022-08-17T02:09:06.868Z,4.55
2022-08-17T02:09:29.948Z,4.55
2022-08-17T02:09:46.973Z,4.55
2022-08-17T02:10:07.083Z,4.55
2022-08-17T02:10:34.109Z,4.55
2022-08-17T02:10:47.199Z,4.55
2022-08-17T02:11:11.352Z,4.55
2022-08-17T02:11:27.318Z,4.55
2022-08-17T02:11:47.381Z,4.55
2022-08-17T02:12:37.680Z,4.55
2022-08-17T02:12:38.897Z,4.55
2022-08-17T02:12:47.559Z,4.55
2022-08-17T02:13:07.592Z,4.55
2022-08-17T02:13:27.683Z,3.9
2022-08-17T02:13:47.731Z,3.9
2022-08-17T02:14:07.805Z,3.9
2022-08-17T02:14:27.829Z,3.9
2022-08-17T02:14:47.889Z,3.9
2022-08-17T02:15:07.977Z,3.9
2022-08-17T02:15:28.031Z,3.9
2022-08-17T02:15:48.067Z,3.9
2022-08-17T02:16:08.172Z,3.9
2022-08-17T02:16:28.213Z,3.9
2022-08-17T02:16:48.262Z,3.9
2022-08-17T02:17:08.298Z,3.9
2022-08-17T02:17:28.383Z,3.9
2022-08-17T02:17:48.452Z,3.9
2022-08-17T02:18:08.516Z,3.9
2022-08-17T02:18:28.583Z,3.9
2022-08-17T02:18:48.655Z,3.9
2022-08-17T02:19:08.689Z,3.9
2022-08-17T02:19:28.774Z,3.9
2022-08-17T02:19:48.826Z,3.9
2022-08-17T02:20:08.878Z,3.9
2022-08-17T02:20:42.018Z,3.9
2022-08-17T02:20:49.023Z,3.9
2022-08-17T02:21:09.056Z,3.9
2022-08-17T02:21:29.125Z,3.9
2022-08-17T02:21:49.179Z,3.9
2022-08-17T02:22:09.227Z,3.9
2022-08-17T02:22:29.310Z,3.9
2022-08-17T02:22:49.590Z,3.9
2022-08-17T02:23:09.451Z,3.9
2022-08-17T02:23:29.489Z,4.2
2022-08-17T02:23:49.533Z,4.2
2022-08-17T02:24:09.578Z,4.2
2022-08-17T02:24:59.779Z,4.2
2022-08-17T02:25:00.551Z,4.2
2022-08-17T02:25:09.774Z,4.2
2022-08-17T02:25:29.816Z,4.2
2022-08-17T02:25:49.893Z,4.2
2022-08-17T02:26:09.960Z,4.2
2022-08-17T02:26:30.026Z,4.2
2022-08-17T02:26:50.053Z,4.2
2022-08-17T02:27:10.132Z,4.2
2022-08-17T02:27:30.185Z,4.2
2022-08-17T02:27:50.253Z,4.2
2022-08-17T02:28:10.283Z,4.2
2022-08-17T02:28:30.344Z,4.2
2022-08-17T02:28:50.409Z,4.2
2022-08-17T02:29:10.481Z,4.2
2022-08-17T02:29:30.540Z,4.2
2022-08-17T02:29:50.582Z,4.2
2022-08-17T02:31:00.038Z,4.2
2022-08-17T02:31:00.718Z,4.2
2022-08-17T02:31:00.912Z,4.2
2022-08-17T02:31:10.836Z,4.2
2022-08-17T02:31:30.904Z,4.2
2022-08-17T02:31:50.964Z,4.2
2022-08-17T02:32:11.036Z,4.2
2022-08-17T02:32:31.096Z,4.2
2022-08-17T02:32:51.309Z,4.2
2022-08-17T02:33:11.234Z,4.2
2022-08-17T02:33:42.955Z,4.2
2022-08-17T02:34:03.488Z,4.3
2022-08-17T02:34:11.379Z,4.3
2022-08-17T02:34:31.482Z,4.3
2022-08-17T02:34:51.506Z,4.3
2022-08-17T02:35:11.542Z,4.3
2022-08-17T02:35:31.624Z,4.3
2022-08-17T02:35:51.696Z,4.3
2022-08-17T02:36:11.790Z,4.3
2022-08-17T02:36:31.867Z,4.3
2022-08-17T02:36:51.917Z,4.3
2022-08-17T02:37:11.996Z,4.3
2022-08-17T02:37:32.050Z,4.3
2022-08-17T02:37:55.785Z,4.3
2022-08-17T02:38:12.164Z,4.3
2022-08-17T02:38:32.188Z,4.3
2022-08-17T02:38:52.254Z,4.3
2022-08-17T02:39:12.320Z,4.3
2022-08-17T02:39:32.422Z,4.3
2022-08-17T02:39:52.525Z,4.3
2022-08-17T02:40:12.596Z,4.3
2022-08-17T02:40:36.308Z,4.3
2022-08-17T02:40:52.603Z,4.3
2022-08-17T02:41:12.679Z,4.3
2022-08-17T02:41:32.763Z,4.3
2022-08-17T02:41:52.841Z,4.3
2022-08-17T02:42:12.899Z,4.3
2022-08-17T02:42:32.979Z,4.3
2022-08-17T02:42:53.037Z,4.3
2022-08-17T02:43:13.151Z,4.3
2022-08-17T02:43:33.168Z,4.5
2022-08-17T02:43:53.242Z,4.5
2022-08-17T02:44:13.287Z,4.5
2022-08-17T02:44:39.944Z,4.5
2022-08-17T02:44:53.447Z,4.5
2022-08-17T02:45:13.519Z,4.5
2022-08-17T02:45:33.570Z,4.5
2022-08-17T02:45:53.600Z,4.5
2022-08-17T02:46:13.659Z,4.5
2022-08-17T02:46:33.729Z,4.5
2022-08-17T02:46:53.792Z,4.5
2022-08-17T02:47:13.831Z,4.5
2022-08-17T02:47:33.858Z,4.5
2022-08-17T02:47:53.903Z,4.5
2022-08-17T02:48:13.952Z,4.5
2022-08-17T02:48:34.000Z,4.5
2022-08-17T02:48:54.054Z,4.5
2022-08-17T02:49:14.125Z,4.5
2022-08-17T02:49:34.211Z,4.5
2022-08-17T02:49:55.988Z,4.5
2022-08-17T02:50:14.323Z,4.5
2022-08-17T02:50:34.412Z,4.5
2022-08-17T02:50:54.490Z,4.5
2022-08-17T02:51:14.537Z,4.5
2022-08-17T02:51:34.585Z,4.5
2022-08-17T02:51:54.634Z,4.5
2022-08-17T02:52:14.682Z,4.5
2022-08-17T02:52:42.979Z,4.5
2022-08-17T02:52:57.315Z,4.5
2022-08-17T02:53:14.868Z,4.5
2022-08-17T02:53:35.972Z,4.5
2022-08-17T02:54:39.350Z,4.3
2022-08-17T02:54:41.190Z,4.3
2022-08-17T02:54:41.648Z,4.3
2022-08-17T02:54:55.181Z,4.3
2022-08-17T02:55:15.263Z,4.3
2022-08-17T02:55:35.331Z,4.3
2022-08-17T02:55:55.385Z,4.3
2022-08-17T02:56:15.435Z,4.3
2022-08-17T02:56:35.481Z,4.3
2022-08-17T02:56:55.511Z,4.3
2022-08-17T02:57:15.586Z,4.3
2022-08-17T02:57:35.623Z,4.3
2022-08-17T02:57:55.694Z,4.3
2022-08-17T02:58:15.743Z,4.3
2022-08-17T02:58:36.234Z,4.3
2022-08-17T02:58:55.882Z,4.3
2022-08-17T02:59:15.918Z,4.3
2022-08-17T02:59:35.986Z,4.3
2022-08-17T02:59:56.048Z,4.3
2022-08-17T03:00:16.139Z,4.3
2022-08-17T03:00:36.231Z,4.3
2022-08-17T03:00:56.283Z,4.3
2022-08-17T03:01:16.338Z,4.3
2022-08-17T03:01:36.421Z,4.3
2022-08-17T03:01:56.550Z,4.3
2022-08-17T03:02:16.509Z,4.3
2022-08-17T03:02:36.578Z,4.3
2022-08-17T03:02:56.658Z,4.3
2022-08-17T03:03:16.718Z,4.3
2022-08-17T03:03:36.777Z,4.3
2022-08-17T03:03:56.949Z,4.9
2022-08-17T03:04:16.915Z,4.9
2022-08-17T03:04:36.980Z,4.9
2022-08-17T03:04:57.042Z,4.9
2022-08-17T03:05:17.109Z,4.9
2022-08-17T03:05:37.169Z,4.9
2022-08-17T03:05:57.224Z,4.9
2022-08-17T03:06:17.305Z,4.9
2022-08-17T03:06:37.344Z,4.9
2022-08-17T03:06:57.406Z,4.9
2022-08-17T03:07:17.470Z,4.9
2022-08-17T03:07:37.519Z,4.9
2022-08-17T03:07:57.602Z,4.9
2022-08-17T03:08:17.688Z,4.9
2022-08-17T03:08:37.722Z,4.9
2022-08-17T03:08:57.795Z,4.9
2022-08-17T03:09:17.838Z,4.9
2022-08-17T03:09:37.895Z,4.9
2022-08-17T03:09:57.936Z,4.9
2022-08-17T03:10:17.990Z,4.9
2022-08-17T03:10:38.057Z,4.9
2022-08-17T03:10:58.128Z,4.9
2022-08-17T03:11:18.177Z,4.9
2022-08-17T03:11:38.243Z,4.9
2022-08-17T03:11:58.263Z,4.9
2022-08-17T03:12:18.320Z,4.9
2022-08-17T03:12:38.380Z,4.9
2022-08-17T03:12:58.451Z,4.9
2022-08-17T03:13:18.491Z,4.9
2022-08-17T03:13:38.581Z,4.9
2022-08-17T03:13:58.610Z,4.9
2022-08-17T03:14:18.677Z,4.5
2022-08-17T03:14:41.527Z,4.5
2022-08-17T03:14:58.844Z,4.5
2022-08-17T03:15:18.891Z,4.5
2022-08-17T03:15:38.963Z,4.5
2022-08-17T03:15:59.016Z,4.5
2022-08-17T03:16:19.068Z,4.5
2022-08-17T03:16:39.136Z,4.5
2022-08-17T03:16:59.191Z,4.5
2022-08-17T03:17:19.276Z,4.5
2022-08-17T03:17:39.337Z,4.5
2022-08-17T03:17:59.399Z,4.5
2022-08-17T03:18:24.473Z,4.5
2022-08-17T03:18:39.547Z,4.5
2022-08-17T03:18:59.565Z,4.5
2022-08-17T03:19:19.648Z,4.5
2022-08-17T03:19:43.014Z,4.5
2022-08-17T03:19:59.785Z,4.5
2022-08-17T03:20:19.849Z,4.5
2022-08-17T03:20:39.889Z,4.5
2022-08-17T03:20:59.989Z,4.5
2022-08-17T03:21:20.049Z,4.5
2022-08-17T03:21:40.100Z,4.5
2022-08-17T03:22:00.164Z,4.5
2022-08-17T03:22:36.504Z,4.5
2022-08-17T03:22:40.293Z,4.5
2022-08-17T03:23:02.657Z,4.5
2022-08-17T03:23:23.777Z,4.5
2022-08-17T03:23:40.481Z,4.5
2022-08-17T03:24:00.500Z,4.5
2022-08-17T03:24:20.570Z,5.4
2022-08-17T03:24:40.671Z,5.4
2022-08-17T03:25:00.713Z,5.4
2022-08-17T03:25:20.769Z,5.4
2022-08-17T03:25:40.831Z,5.4
2022-08-17T03:26:00.886Z,5.4
2022-08-17T03:26:20.946Z,5.4
2022-08-17T03:26:41.010Z,5.4
2022-08-17T03:27:01.042Z,5.4
2022-08-17T03:27:21.133Z,5.4
2022-08-17T03:27:42.057Z,5.4
2022-08-17T03:28:01.222Z,5.4
2022-08-17T03:28:21.291Z,5.4
2022-08-17T03:28:41.320Z,5.4
2022-08-17T03:29:01.373Z,5.4
2022-08-17T03:29:21.418Z,5.4
2022-08-17T03:29:41.477Z,5.4
2022-08-17T03:30:01.530Z,5.4
2022-08-17T03:30:21.601Z,5.4
2022-08-17T03:30:41.645Z,5.4
2022-08-17T03:31:01.731Z,5.4
2022-08-17T03:31:21.782Z,5.4
2022-08-17T03:31:41.862Z,5.4
2022-08-17T03:32:01.944Z,5.4
2022-08-17T03:32:22.007Z,5.4
2022-08-17T03:32:42.083Z,5.4
2022-08-17T03:33:02.136Z,5.4
2022-08-17T03:33:22.199Z,5.4
2022-08-17T03:33:42.263Z,5.4
2022-08-17T03:34:02.291Z,5.6
2022-08-17T03:34:22.343Z,5.6
2022-08-17T03:34:42.408Z,5.6
2022-08-17T03:35:02.474Z,5.6
2022-08-17T03:35:22.571Z,5.6
2022-08-17T03:35:42.625Z,5.6
2022-08-17T03:36:02.677Z,5.6
2022-08-17T03:36:22.725Z,5.6
2022-08-17T03:36:42.814Z,5.6
2022-08-17T03:37:02.860Z,5.6
2022-08-17T03:37:22.896Z,5.6
2022-08-17T03:37:42.980Z,5.6
2022-08-17T03:38:03.049Z,5.6
2022-08-17T03:38:23.291Z,5.6
2022-08-17T03:38:43.148Z,5.6
2022-08-17T03:39:03.251Z,5.6
2022-08-17T03:39:23.303Z,5.6
2022-08-17T03:39:43.475Z,5.6
2022-08-17T03:40:03.474Z,5.6
2022-08-17T03:40:41.811Z,5.6
2022-08-17T03:40:58.108Z,5.6
2022-08-17T03:41:03.585Z,5.6
2022-08-17T03:41:23.643Z,5.6
2022-08-17T03:41:43.712Z,5.6
2022-08-17T03:42:03.770Z,5.6
2022-08-17T03:42:32.134Z,5.6
2022-08-17T03:42:43.957Z,5.6
2022-08-17T03:43:03.935Z,5.6
2022-08-17T03:43:24.015Z,5.6
2022-08-17T03:43:44.073Z,5.6
2022-08-17T03:44:04.122Z,5.6
2022-08-17T03:44:24.168Z,4.6
2022-08-17T03:44:44.223Z,4.6
2022-08-17T03:45:04.281Z,4.6
2022-08-17T03:45:24.344Z,4.6
2022-08-17T03:45:44.392Z,4.6
2022-08-17T03:46:04.463Z,4.6
2022-08-17T03:46:28.099Z,4.6
2022-08-17T03:46:44.550Z,4.6
2022-08-17T03:47:04.606Z,4.6
2022-08-17T03:47:24.688Z,4.6
2022-08-17T03:47:44.717Z,4.6
2022-08-17T03:48:04.788Z,4.6
2022-08-17T03:48:24.854Z,4.6
2022-08-17T03:48:44.906Z,4.6
2022-08-17T03:49:04.998Z,4.6
2022-08-17T03:49:25.071Z,4.6
2022-08-17T03:49:45.142Z,4.6
2022-08-17T03:50:06.769Z,4.6
2022-08-17T03:50:25.279Z,4.6
2022-08-17T03:50:45.321Z,4.6
2022-08-17T03:51:05.368Z,4.6
2022-08-17T03:51:25.464Z,4.6
2022-08-17T03:51:45.505Z,4.6
2022-08-17T03:52:05.556Z,4.6
2022-08-17T03:52:25.617Z,4.6
2022-08-17T03:52:45.656Z,4.6
2022-08-17T03:53:05.755Z,4.6
2022-08-17T03:53:25.830Z,4.6
2022-08-17T03:53:45.829Z,4.6
2022-08-17T03:54:05.898Z,4.6
2022-08-17T03:54:25.960Z,5.3
2022-08-17T03:54:46.020Z,5.3
2022-08-17T03:55:06.068Z,5.3
2022-08-17T03:55:35.804Z,5.3
2022-08-17T03:55:46.187Z,5.3
2022-08-17T03:56:06.258Z,5.3
2022-08-17T03:56:26.326Z,5.3
2022-08-17T03:56:46.386Z,5.3
2022-08-17T03:57:06.470Z,5.3
2022-08-17T03:57:26.526Z,5.3
2022-08-17T03:57:46.565Z,5.3
2022-08-17T03:58:06.628Z,5.3
2022-08-17T03:58:26.680Z,5.3
2022-08-17T03:58:46.760Z,5.3
2022-08-17T03:59:06.796Z,5.3
2022-08-17T03:59:26.870Z,5.3
2022-08-17T03:59:47.658Z,5.3
2022-08-17T04:00:06.977Z,5.3
2022-08-17T04:00:27.041Z,5.3
2022-08-17T04:00:47.090Z,5.3
2022-08-17T04:01:07.241Z,5.3
2022-08-17T04:01:27.352Z,5.3
2022-08-17T04:01:47.362Z,5.3
2022-08-17T04:02:07.375Z,5.3
2022-08-17T04:02:27.421Z,5.3
2022-08-17T04:02:47.474Z,5.3
2022-08-17T04:03:07.548Z,5.3
2022-08-17T04:03:27.632Z,5.3
2022-08-17T04:03:47.695Z,5.3
2022-08-17T04:04:07.740Z,5.3
2022-08-17T04:04:28.137Z,5.8
2022-08-17T04:04:47.867Z,5.8
2022-08-17T04:05:07.932Z,5.8
2022-08-17T04:05:28.001Z,5.8
2022-08-17T04:05:48.075Z,5.8
2022-08-17T04:06:08.144Z,5.8
2022-08-17T04:06:28.208Z,5.8
2022-08-17T04:06:48.313Z,5.8
2022-08-17T04:07:08.381Z,5.8
2022-08-17T04:07:28.426Z,5.8
2022-08-17T04:07:48.485Z,5.8
2022-08-17T04:08:08.550Z,5.8
2022-08-17T04:08:28.632Z,5.8
2022-08-17T04:08:48.674Z,5.8
2022-08-17T04:09:08.727Z,5.8
2022-08-17T04:09:28.766Z,5.8
2022-08-17T04:09:48.906Z,5.8
2022-08-17T04:10:08.935Z,5.8
2022-08-17T04:10:28.971Z,5.8
2022-08-17T04:10:49.044Z,5.8
2022-08-17T04:11:09.103Z,5.8
2022-08-17T04:11:29.162Z,5.8
2022-08-17T04:11:49.212Z,5.8
2022-08-17T04:12:09.273Z,5.8
2022-08-17T04:12:29.331Z,5.8
2022-08-17T04:12:49.545Z,5.8
2022-08-17T04:13:09.419Z,5.8
2022-08-17T04:13:29.467Z,5.8
2022-08-17T04:13:49.517Z,5.8
2022-08-17T04:14:09.599Z,5.8
2022-08-17T04:14:29.650Z,5.8
2022-08-17T04:14:52.191Z,6.2
2022-08-17T04:15:09.795Z,6.2
2022-08-17T04:15:29.874Z,6.2
2022-08-17T04:15:49.919Z,6.2
2022-08-17T04:16:09.956Z,6.2
2022-08-17T04:16:30.040Z,6.2
2022-08-17T04:16:50.068Z,6.2
2022-08-17T04:17:10.109Z,6.2
2022-08-17T04:17:30.187Z,6.2
2022-08-17T04:17:50.254Z,6.2
2022-08-17T04:18:11.089Z,6.2
2022-08-17T04:18:30.372Z,6.2
2022-08-17T04:18:50.437Z,6.2
2022-08-17T04:19:10.500Z,6.2
2022-08-17T04:19:30.589Z,6.2
2022-08-17T04:19:50.665Z,6.2
2022-08-17T04:20:10.740Z,6.2
2022-08-17T04:20:30.856Z,6.2
2022-08-17T04:20:50.866Z,6.2
2022-08-17T04:21:10.907Z,6.2
2022-08-17T04:21:30.965Z,6.2
2022-08-17T04:21:51.049Z,6.2
2022-08-17T04:22:11.087Z,6.2
2022-08-17T04:22:34.265Z,6.2
2022-08-17T04:22:51.371Z,6.2
2022-08-17T04:23:11.283Z,6.2
2022-08-17T04:23:31.387Z,6.2
2022-08-17T04:23:51.458Z,6.2
2022-08-17T04:24:11.522Z,6.2
2022-08-17T04:24:31.604Z,6.2
2022-08-17T04:24:51.657Z,3.85
2022-08-17T04:25:11.721Z,3.85
2022-08-17T04:25:31.818Z,3.85
2022-08-17T04:25:51.867Z,3.85
2022-08-17T04:26:11.922Z,3.85
2022-08-17T04:26:54.194Z,3.85
2022-08-17T04:26:54.421Z,3.85
2022-08-17T04:27:12.134Z,3.85
2022-08-17T04:27:32.216Z,3.85
2022-08-17T04:27:52.277Z,3.85
2022-08-17T04:28:16.098Z,3.85
2022-08-17T04:28:32.371Z,3.85
2022-08-17T04:28:52.403Z,3.85
2022-08-17T04:29:12.468Z,3.85
2022-08-17T04:29:54.734Z,3.85
2022-08-17T04:29:55.098Z,3.85
2022-08-17T04:30:12.669Z,3.85
2022-08-17T04:30:32.704Z,3.85
2022-08-17T04:30:52.776Z,3.85
2022-08-17T04:31:12.807Z,3.85
2022-08-17T04:31:32.881Z,3.85
2022-08-17T04:31:52.947Z,3.85
2022-08-17T04:32:13.019Z,3.85
2022-08-17T04:32:59.307Z,3.85
2022-08-17T04:33:00.818Z,3.85
2022-08-17T04:33:13.411Z,3.85
2022-08-17T04:33:33.270Z,3.85
2022-08-17T04:33:53.334Z,3.85
2022-08-17T04:34:13.411Z,3.85
2022-08-17T04:34:33.478Z,3.85